createdAt,value
2023-01-29T00:02:26.028Z,5.80
2023-01-29T00:04:58.677Z,5.72
2023-01-29T00:07:26.815Z,6.10
2023-01-29T00:09:54.773Z,5.60
2023-01-29T00:12:22.277Z,5.95
2023-01-29T00:14:54.997Z,5.70
2023-01-29T00:17:22.686Z,5.43
2023-01-29T00:19:51.044Z,6.03
2023-01-29T00:22:18.621Z,6.03
2023-01-29T00:24:46.193Z,7.35
2023-01-29T00:27:14.102Z,16.90
2023-01-29T00:29:43.774Z,6.32
2023-01-29T00:32:11.590Z,6.43
2023-01-29T00:34:39.166Z,6.07
2023-01-29T00:37:09.010Z,6.10
2023-01-29T00:39:47.942Z,5.80
2023-01-29T00:42:35.264Z,5.97
2023-01-29T00:45:03.047Z,5.78
2023-01-29T00:47:31.070Z,6.13
2023-01-29T00:49:59.934Z,5.95
2023-01-29T00:52:28.240Z,6.10
2023-01-29T00:55:00.775Z,6.28
2023-01-29T00:57:30.628Z,5.40
2023-01-29T00:59:58.295Z,6.20
2023-01-29T01:02:44.653Z,6.80
2023-01-29T01:05:18.205Z,6.32
2023-01-29T01:07:48.367Z,7.20
2023-01-29T01:10:22.466Z,6.32
2023-01-29T01:12:55.380Z,6.20
2023-01-29T01:15:25.791Z,6.32
2023-01-29T01:17:59.629Z,5.82
2023-01-29T01:20:30.366Z,5.88
2023-01-29T01:22:57.979Z,5.60
2023-01-29T01:25:26.467Z,6.10
2023-01-29T01:30:26.477Z,5.85
2023-01-29T01:32:54.332Z,5.97
2023-01-29T01:35:23.147Z,6.50
2023-01-29T01:37:50.715Z,6.43
2023-01-29T01:40:20.578Z,6.43
2023-01-29T01:42:49.855Z,5.90
2023-01-29T01:47:59.533Z,6.07
2023-01-29T01:50:30.528Z,6.20
2023-01-29T01:53:18.614Z,6.85
2023-01-29T01:55:51.045Z,6.55
2023-01-29T01:58:33.716Z,6.80
2023-01-29T02:01:01.847Z,6.65
2023-01-29T02:03:51.592Z,6.78
2023-01-29T02:06:38.384Z,6.65
2023-01-29T02:09:33.054Z,6.53
2023-01-29T02:12:14.268Z,6.45
2023-01-29T02:14:43.582Z,6.10
2023-01-29T02:19:50.010Z,6.32
2023-01-29T02:22:32.792Z,6.50
2023-01-29T02:25:09.374Z,6.85
2023-01-29T02:27:58.528Z,5.90
2023-01-29T02:30:37.892Z,5.63
2023-01-29T02:33:39.777Z,6.28
2023-01-29T02:36:31.820Z,6.10
2023-01-29T02:39:24.497Z,5.90
2023-01-29T02:42:11.827Z,6.63
2023-01-29T02:44:49.868Z,6.50
2023-01-29T02:47:31.180Z,6.78
2023-01-29T02:50:20.188Z,8.68
2023-01-29T02:53:12.727Z,10.10
2023-01-29T02:55:46.743Z,15.15
2023-01-29T02:58:22.016Z,17.92
2023-01-29T03:00:52.294Z,21.17
2023-01-29T03:03:34.399Z,21.83
2023-01-29T03:06:07.559Z,20.52
2023-01-29T03:08:45.715Z,19.35
2023-01-29T03:11:15.885Z,17.50
2023-01-29T03:14:00.071Z,14.13
2023-01-29T03:16:48.789Z,13.38
2023-01-29T03:19:41.392Z,12.23
2023-01-29T03:22:22.027Z,13.05
2023-01-29T03:25:21.284Z,14.88
2023-01-29T03:28:12.378Z,15.25
2023-01-29T03:32:07.071Z,16.75
2023-01-29T03:34:46.848Z,17.67
2023-01-29T03:37:46.401Z,18.10
2023-01-29T03:40:15.733Z,18.83
2023-01-29T03:43:12.486Z,17.73
2023-01-29T03:45:47.045Z,19.27
2023-01-29T03:48:32.934Z,20.40
2023-01-29T03:51:06.828Z,19.55
2023-01-29T03:53:56.140Z,18.15
2023-01-29T03:56:39.169Z,16.75
2023-01-29T03:59:31.350Z,17.50
2023-01-29T04:02:30.513Z,20.33
2023-01-29T04:05:09.570Z,18.02
2023-01-29T04:07:54.667Z,18.40
2023-01-29T04:10:27.179Z,16.00
2023-01-29T04:13:00.400Z,18.25
2023-01-29T04:15:35.340Z,18.20
2023-01-29T04:18:03.226Z,16.23
2023-01-29T04:20:43.783Z,16.20
2023-01-29T04:23:26.468Z,14.25
2023-01-29T04:26:24.214Z,14.30
2023-01-29T04:28:55.892Z,11.73
2023-01-29T04:31:32.882Z,9.93
2023-01-29T04:34:24.457Z,9.25
2023-01-29T04:37:22.951Z,7.68
2023-01-29T04:40:13.841Z,7.18
2023-01-29T04:43:00.911Z,7.55
2023-01-29T04:45:49.137Z,8.43
2023-01-29T04:48:25.915Z,8.40
2023-01-29T04:51:23.391Z,13.85
2023-01-29T04:54:12.862Z,8.40
2023-01-29T04:59:13.302Z,8.45
2023-01-29T05:01:42.059Z,8.30
2023-01-29T05:04:14.124Z,7.95
2023-01-29T05:06:42.560Z,7.35
2023-01-29T05:09:14.833Z,8.50
2023-01-29T05:11:44.416Z,8.10
2023-01-29T05:16:46.354Z,6.85
2023-01-29T05:19:16.257Z,6.60
2023-01-29T05:24:23.730Z,7.53
2023-01-29T05:27:13.193Z,8.15
2023-01-29T05:29:45.630Z,7.85
2023-01-29T05:32:14.029Z,8.80
2023-01-29T05:34:43.753Z,8.07
2023-01-29T05:37:12.068Z,7.65
2023-01-29T05:39:39.797Z,8.02
2023-01-29T05:42:07.614Z,7.13
2023-01-29T05:44:35.670Z,8.18
2023-01-29T05:47:03.224Z,8.13
2023-01-29T05:49:30.826Z,6.85
2023-01-29T05:51:58.504Z,7.07
2023-01-29T05:54:26.156Z,7.10
2023-01-29T05:56:53.790Z,7.18
2023-01-29T05:59:21.786Z,6.40
2023-01-29T06:01:49.527Z,6.93
2023-01-29T06:04:17.050Z,7.57
2023-01-29T06:06:44.803Z,6.60
2023-01-29T06:09:12.565Z,6.07
2023-01-29T06:11:40.100Z,6.72
2023-01-29T06:14:08.188Z,6.88
2023-01-29T06:16:35.750Z,6.85
2023-01-29T06:19:03.541Z,7.10
2023-01-29T06:21:31.211Z,7.40
2023-01-29T06:23:58.816Z,7.90
2023-01-29T06:26:26.496Z,7.93
2023-01-29T06:28:54.104Z,7.63
2023-01-29T06:31:37.206Z,8.20
2023-01-29T06:34:06.967Z,9.05
2023-01-29T06:36:35.938Z,7.88
2023-01-29T06:39:05.267Z,7.93
2023-01-29T06:41:33.341Z,8.00
2023-01-29T06:44:00.918Z,8.77
2023-01-29T06:46:28.782Z,6.93
2023-01-29T06:49:00.113Z,7.38
2023-01-29T06:51:30.516Z,6.97
2023-01-29T06:53:58.359Z,6.70
2023-01-29T06:56:25.899Z,7.05
2023-01-29T06:58:53.454Z,6.50
2023-01-29T07:01:36.784Z,6.85
2023-01-29T07:04:04.639Z,7.30
2023-01-29T07:06:32.777Z,7.70
2023-01-29T07:09:00.371Z,6.80
2023-01-29T07:11:28.783Z,6.82
2023-01-29T07:13:56.527Z,5.90
2023-01-29T07:16:25.097Z,7.18
2023-01-29T07:18:53.087Z,6.80
2023-01-29T07:21:20.895Z,14.05
2023-01-29T07:23:48.430Z,7.05
2023-01-29T07:26:16.452Z,7.20
2023-01-29T07:28:44.006Z,6.72
2023-01-29T07:31:13.542Z,6.93
2023-01-29T07:33:44.310Z,6.97
2023-01-29T07:36:13.105Z,7.50
2023-01-29T07:38:40.685Z,8.18
2023-01-29T07:41:09.359Z,7.47
2023-01-29T07:43:36.839Z,8.50
2023-01-29T07:46:05.122Z,8.60
2023-01-29T07:48:33.869Z,7.57
2023-01-29T07:51:01.492Z,7.85
2023-01-29T07:53:29.555Z,7.43
2023-01-29T07:55:57.424Z,7.70
2023-01-29T07:58:25.017Z,8.13
2023-01-29T08:00:52.547Z,7.93
2023-01-29T08:03:20.919Z,8.25
2023-01-29T08:05:49.033Z,7.70
2023-01-29T08:08:17.120Z,8.45
2023-01-29T08:10:45.236Z,8.97
2023-01-29T08:13:12.734Z,8.60
2023-01-29T08:15:44.460Z,9.27
2023-01-29T08:18:13.139Z,9.10
2023-01-29T08:20:43.172Z,8.73
2023-01-29T08:23:14.858Z,8.57
2023-01-29T08:25:42.652Z,8.65
2023-01-29T08:28:11.849Z,8.27
2023-01-29T08:30:40.019Z,8.23
2023-01-29T08:33:11.595Z,8.30
2023-01-29T08:35:41.225Z,8.48
2023-01-29T08:40:37.113Z,8.15
2023-01-29T08:43:08.642Z,8.75
2023-01-29T08:45:39.372Z,9.27
2023-01-29T08:48:07.775Z,8.98
2023-01-29T08:50:36.466Z,9.05
2023-01-29T08:53:08.114Z,8.48
2023-01-29T08:55:37.628Z,8.98
2023-01-29T08:58:06.577Z,8.98
2023-01-29T09:00:34.891Z,8.82
2023-01-29T09:03:07.921Z,9.55
2023-01-29T09:05:37.578Z,9.02
2023-01-29T09:08:05.998Z,9.65
2023-01-29T09:10:34.416Z,10.05
2023-01-29T09:13:02.057Z,8.82
2023-01-29T09:15:30.590Z,8.68
2023-01-29T09:17:58.455Z,8.85
2023-01-29T09:20:26.416Z,8.93
2023-01-29T09:22:56.714Z,9.02
2023-01-29T09:25:24.369Z,8.95
2023-01-29T09:27:51.844Z,9.07
2023-01-29T09:30:19.646Z,9.25
2023-01-29T09:32:53.613Z,8.70
2023-01-29T09:35:25.467Z,9.90
2023-01-29T09:37:53.208Z,9.23
2023-01-29T09:40:43.261Z,9.02
2023-01-29T09:43:17.037Z,9.07
2023-01-29T09:45:58.436Z,9.35
2023-01-29T09:48:30.831Z,9.18
2023-01-29T09:51:03.782Z,8.82
2023-01-29T09:53:36.012Z,9.07
2023-01-29T09:56:18.271Z,9.80
2023-01-29T09:58:45.997Z,9.95
2023-01-29T10:01:19.536Z,9.27
2023-01-29T10:04:06.637Z,8.50
2023-01-29T10:07:11.455Z,10.45
2023-01-29T10:10:12.433Z,9.50
2023-01-29T10:12:58.349Z,10.30
2023-01-29T10:15:57.335Z,10.30
2023-01-29T10:18:50.437Z,9.98
2023-01-29T10:21:33.154Z,9.98
2023-01-29T10:24:30.822Z,9.27
2023-01-29T10:26:59.400Z,10.55
2023-01-29T10:29:28.922Z,10.70
2023-01-29T10:32:05.045Z,9.40
2023-01-29T10:34:40.175Z,9.32
2023-01-29T10:37:19.609Z,9.75
2023-01-29T10:42:46.460Z,9.48
2023-01-29T10:45:30.760Z,11.30
2023-01-29T10:48:22.484Z,10.20
2023-01-29T10:51:12.099Z,11.15
2023-01-29T10:53:57.463Z,10.70
2023-01-29T10:56:33.130Z,10.13
2023-01-29T10:59:10.831Z,10.48
2023-01-29T11:01:38.462Z,10.63
2023-01-29T11:04:06.931Z,10.88
2023-01-29T11:06:36.193Z,10.85
2023-01-29T11:09:15.259Z,11.27
2023-01-29T11:12:00.839Z,10.82
2023-01-29T11:14:54.474Z,12.07
2023-01-29T11:17:24.269Z,11.10
2023-01-29T11:19:55.776Z,11.50
2023-01-29T11:22:26.295Z,13.25
2023-01-29T11:25:20.111Z,16.58
2023-01-29T11:27:54.581Z,15.05
2023-01-29T11:30:24.716Z,10.93
2023-01-29T11:33:13.197Z,11.90
2023-01-29T11:35:40.913Z,11.03
2023-01-29T11:38:15.727Z,12.02
2023-01-29T11:40:45.042Z,11.23
2023-01-29T11:43:27.898Z,12.27
2023-01-29T11:46:01.933Z,12.32
2023-01-29T11:48:39.648Z,12.23
2023-01-29T11:51:09.006Z,12.55
2023-01-29T11:53:43.138Z,12.63
2023-01-29T11:56:20.775Z,12.30
2023-01-29T11:58:50.041Z,12.18
2023-01-29T12:01:30.233Z,13.07
2023-01-29T12:03:58.252Z,11.90
2023-01-29T12:06:38.088Z,12.00
2023-01-29T12:09:17.028Z,12.40
2023-01-29T12:11:44.954Z,12.50
2023-01-29T12:14:34.346Z,11.65
2023-01-29T12:20:17.682Z,12.15
2023-01-29T12:23:03.439Z,12.55
2023-01-29T12:25:30.971Z,12.18
2023-01-29T12:28:41.384Z,13.40
2023-01-29T12:31:29.618Z,18.70
2023-01-29T12:34:10.332Z,12.63
2023-01-29T12:36:53.468Z,11.82
2023-01-29T12:39:21.637Z,11.77
2023-01-29T12:42:04.372Z,11.13
2023-01-29T12:44:37.096Z,10.90
2023-01-29T12:47:08.318Z,13.40
2023-01-29T12:49:39.462Z,11.65
2023-01-29T12:52:18.056Z,11.13
2023-01-29T12:54:54.582Z,11.85
2023-01-29T12:57:43.247Z,10.05
2023-01-29T13:00:19.878Z,10.77
2023-01-29T13:03:11.221Z,11.18
2023-01-29T13:05:47.160Z,11.27
2023-01-29T13:08:30.486Z,10.20
2023-01-29T13:11:01.618Z,16.67
2023-01-29T13:13:41.151Z,10.50
2023-01-29T13:16:12.734Z,9.85
2023-01-29T13:18:50.569Z,10.05
2023-01-29T13:21:21.268Z,10.55
2023-01-29T13:23:52.982Z,9.88
2023-01-29T13:26:22.049Z,11.00
2023-01-29T13:28:51.688Z,9.27
2023-01-29T13:34:28.592Z,9.23
2023-01-29T13:36:59.195Z,10.40
2023-01-29T13:39:44.337Z,10.00
2023-01-29T13:42:19.362Z,10.15
2023-01-29T13:44:49.579Z,9.27
2023-01-29T13:47:34.660Z,9.95
2023-01-29T13:50:17.671Z,9.27
2023-01-29T13:52:56.554Z,10.45
2023-01-29T13:55:37.262Z,10.02
2023-01-29T13:58:07.201Z,9.73
2023-01-29T14:00:35.640Z,10.52
2023-01-29T14:03:11.447Z,10.18
2023-01-29T14:05:44.391Z,10.63
2023-01-29T14:08:15.211Z,10.23
2023-01-29T14:10:43.870Z,9.77
2023-01-29T14:13:18.611Z,10.63
2023-01-29T14:16:12.392Z,9.98
2023-01-29T14:18:55.498Z,10.30
2023-01-29T14:21:28.451Z,10.25
2023-01-29T14:24:29.431Z,10.35
2023-01-29T14:26:58.041Z,11.15
2023-01-29T14:29:34.621Z,11.73
2023-01-29T14:32:20.401Z,10.73
2023-01-29T14:35:01.178Z,11.48
2023-01-29T14:37:40.689Z,11.25
2023-01-29T14:40:11.344Z,10.60
2023-01-29T14:42:52.502Z,12.55
2023-01-29T14:45:32.250Z,12.45
2023-01-29T14:48:11.774Z,12.20
2023-01-29T14:50:44.617Z,12.05
2023-01-29T14:53:35.544Z,11.45
2023-01-29T14:56:19.339Z,11.25
2023-01-29T14:58:55.354Z,11.70
2023-01-29T15:01:30.878Z,11.27
2023-01-29T15:04:07.975Z,12.55
2023-01-29T15:06:48.316Z,11.85
2023-01-29T15:09:36.642Z,12.15
2023-01-29T15:12:28.729Z,12.90
2023-01-29T15:15:21.721Z,12.45
2023-01-29T15:18:40.006Z,11.23
2023-01-29T15:21:16.412Z,12.40
2023-01-29T15:23:48.900Z,12.10
2023-01-29T15:26:22.564Z,11.77
2023-01-29T15:29:04.156Z,11.73
2023-01-29T15:31:35.219Z,10.70
2023-01-29T15:34:07.777Z,10.48
2023-01-29T15:36:37.365Z,11.07
2023-01-29T15:39:25.012Z,11.05
2023-01-29T15:42:10.724Z,10.52
2023-01-29T15:44:45.873Z,10.50
2023-01-29T15:47:15.737Z,10.77
2023-01-29T15:49:49.596Z,9.82
2023-01-29T15:52:26.037Z,11.23
2023-01-29T15:54:58.022Z,11.60
2023-01-29T15:57:35.406Z,11.25
2023-01-29T16:00:05.100Z,10.68
2023-01-29T16:02:41.652Z,11.60
2023-01-29T16:05:20.518Z,10.75
2023-01-29T16:07:52.610Z,10.48
2023-01-29T16:10:23.052Z,11.93
2023-01-29T16:12:52.055Z,11.15
2023-01-29T16:15:35.066Z,10.98
2023-01-29T16:18:19.506Z,11.63
2023-01-29T16:20:52.109Z,10.30
2023-01-29T16:23:24.849Z,11.75
2023-01-29T16:25:52.457Z,10.43
2023-01-29T16:28:20.815Z,9.75
2023-01-29T16:30:56.663Z,10.13
2023-01-29T16:33:34.013Z,10.52
2023-01-29T16:36:05.839Z,10.90
2023-01-29T16:38:36.113Z,9.95
2023-01-29T16:41:15.573Z,10.45
2023-01-29T16:43:49.398Z,9.98
2023-01-29T16:46:44.986Z,10.02
2023-01-29T16:49:31.100Z,10.75
2023-01-29T16:52:20.732Z,9.98
2023-01-29T16:54:48.813Z,8.98
2023-01-29T16:57:28.207Z,9.30
2023-01-29T16:59:58.373Z,10.15
2023-01-29T17:02:29.992Z,10.27
2023-01-29T17:05:06.815Z,8.88
2023-01-29T17:07:36.649Z,10.10
2023-01-29T17:10:07.783Z,9.88
2023-01-29T17:12:37.345Z,10.00
2023-01-29T17:15:30.938Z,9.82
2023-01-29T17:17:58.561Z,10.32
2023-01-29T17:20:26.995Z,9.15
2023-01-29T17:22:56.452Z,9.27
2023-01-29T17:25:25.041Z,8.20
2023-01-29T17:27:52.772Z,7.32
2023-01-29T17:30:31.170Z,12.10
2023-01-29T17:32:59.748Z,7.55
2023-01-29T17:35:30.430Z,7.07
2023-01-29T17:37:59.179Z,7.25
2023-01-29T17:40:42.567Z,6.90
2023-01-29T17:43:11.929Z,7.13
2023-01-29T17:45:40.173Z,6.53
2023-01-29T17:48:21.959Z,7.68
2023-01-29T17:50:53.570Z,7.00
2023-01-29T17:53:24.814Z,7.82
2023-01-29T17:56:02.857Z,7.05
2023-01-29T17:58:30.790Z,7.15
2023-01-29T18:00:59.766Z,6.75
2023-01-29T18:03:33.347Z,6.20
2023-01-29T18:06:01.249Z,6.22
2023-01-29T18:08:33.053Z,6.40
2023-01-29T18:11:01.999Z,6.68
2023-01-29T18:13:36.306Z,5.95
2023-01-29T18:16:04.878Z,7.45
2023-01-29T18:18:33.536Z,6.90
2023-01-29T18:23:32.173Z,6.00
2023-01-29T18:25:59.849Z,6.22
2023-01-29T18:28:28.366Z,6.30
2023-01-29T18:30:58.382Z,5.55
2023-01-29T18:33:34.359Z,6.63
2023-01-29T18:36:06.765Z,5.90
2023-01-29T18:38:36.584Z,6.07
2023-01-29T18:41:15.050Z,6.05
2023-01-29T18:43:47.851Z,5.57
2023-01-29T18:46:16.814Z,5.38
2023-01-29T18:48:48.335Z,6.22
2023-01-29T18:51:19.546Z,5.77
2023-01-29T18:53:52.131Z,5.13
2023-01-29T18:56:22.610Z,5.63
2023-01-29T18:58:55.818Z,5.45
2023-01-29T19:01:32.248Z,5.40
2023-01-29T19:04:00.396Z,6.07
2023-01-29T19:06:37.194Z,5.30
2023-01-29T19:09:09.592Z,5.45
2023-01-29T19:11:38.704Z,5.97
2023-01-29T19:14:11.493Z,6.43
2023-01-29T19:16:44.179Z,5.80
2023-01-29T19:19:14.737Z,5.75
2023-01-29T19:21:42.503Z,6.65
2023-01-29T19:24:11.784Z,6.90
2023-01-29T19:29:09.995Z,5.63
2023-01-29T19:31:44.023Z,5.03
2023-01-29T19:34:14.664Z,5.90
2023-01-29T19:36:43.892Z,5.85
2023-01-29T19:39:12.532Z,5.70
2023-01-29T19:41:41.856Z,6.50
2023-01-29T19:44:10.723Z,6.30
2023-01-29T19:46:46.916Z,5.82
2023-01-29T19:49:17.262Z,5.68
2023-01-29T19:51:59.116Z,6.00
2023-01-29T19:54:31.385Z,8.32
2023-01-29T19:57:02.681Z,5.85
2023-01-29T19:59:37.865Z,5.57
2023-01-29T20:02:07.178Z,5.85
2023-01-29T20:04:42.807Z,6.18
2023-01-29T20:07:16.956Z,11.25
2023-01-29T20:09:51.899Z,6.05
2023-01-29T20:12:30.754Z,6.05
2023-01-29T20:15:08.615Z,6.25
2023-01-29T20:17:47.886Z,5.97
2023-01-29T20:20:20.971Z,6.57
2023-01-29T20:23:01.690Z,5.80
2023-01-29T20:25:34.180Z,6.07
2023-01-29T20:28:12.153Z,5.70
2023-01-29T20:30:46.474Z,6.60
2023-01-29T20:33:20.338Z,6.25
2023-01-29T20:35:59.584Z,5.95
2023-01-29T20:38:33.795Z,5.30
2023-01-29T20:41:15.629Z,6.03
2023-01-29T20:43:51.554Z,5.30
2023-01-29T20:46:22.552Z,6.45
2023-01-29T20:48:54.237Z,6.15
2023-01-29T20:51:30.898Z,6.03
2023-01-29T20:53:59.067Z,6.60
2023-01-29T20:56:36.476Z,6.60
2023-01-29T20:59:10.694Z,6.15
2023-01-29T21:01:41.243Z,5.93
2023-01-29T21:04:16.311Z,5.68
2023-01-29T21:06:45.269Z,5.75
2023-01-29T21:09:17.561Z,5.50
2023-01-29T21:11:45.572Z,6.28
2023-01-29T21:16:42.785Z,6.15
2023-01-29T21:19:14.115Z,5.70
2023-01-29T21:21:44.526Z,5.63
2023-01-29T21:24:13.090Z,5.47
2023-01-29T21:26:41.114Z,6.43
2023-01-29T21:29:11.186Z,5.45
2023-01-29T21:31:39.313Z,5.82
2023-01-29T21:34:07.760Z,5.90
2023-01-29T21:36:36.900Z,6.05
2023-01-29T21:39:17.111Z,5.57
2023-01-29T21:42:06.800Z,5.18
2023-01-29T21:44:37.619Z,5.45
2023-01-29T21:47:14.446Z,5.80
2023-01-29T21:49:45.151Z,5.93
2023-01-29T21:52:14.275Z,6.27
2023-01-29T21:57:17.365Z,6.15
2023-01-29T21:59:47.379Z,6.07
2023-01-29T22:02:23.156Z,6.05
2023-01-29T22:04:52.381Z,6.13
2023-01-29T22:07:20.003Z,6.10
2023-01-29T22:09:47.935Z,5.95
2023-01-29T22:12:15.841Z,5.68
2023-01-29T22:14:43.653Z,6.15
2023-01-29T22:17:11.380Z,6.47
2023-01-29T22:19:38.961Z,6.38
2023-01-29T22:22:07.929Z,5.93
2023-01-29T22:24:35.850Z,6.38
2023-01-29T22:27:03.371Z,6.10
2023-01-29T22:29:30.929Z,6.15
2023-01-29T22:31:58.465Z,6.07
2023-01-29T22:34:26.046Z,6.80
2023-01-29T22:36:53.906Z,6.15
2023-01-29T22:39:21.544Z,6.70
2023-01-29T22:41:49.645Z,6.60
2023-01-29T22:44:17.216Z,6.88
2023-01-29T22:46:44.771Z,6.60
2023-01-29T22:49:12.916Z,6.90
2023-01-29T22:51:40.435Z,6.55
2023-01-29T22:54:08.009Z,7.03
2023-01-29T22:56:36.351Z,6.50
2023-01-29T22:59:03.903Z,5.97
2023-01-29T23:01:32.387Z,6.60
2023-01-29T23:04:01.397Z,6.47
2023-01-29T23:06:28.990Z,5.80
2023-01-29T23:08:56.503Z,6.55
2023-01-29T23:11:24.373Z,6.28
2023-01-29T23:13:55.396Z,6.15
2023-01-29T23:16:27.673Z,6.50
2023-01-29T23:18:56.120Z,6.40
2023-01-29T23:21:25.255Z,6.55
2023-01-29T23:23:55.398Z,6.10
2023-01-29T23:26:41.511Z,6.00
2023-01-29T23:29:09.380Z,6.07
2023-01-29T23:31:37.020Z,6.35
2023-01-29T23:34:04.769Z,6.20
2023-01-29T23:36:32.401Z,8.20
2023-01-29T23:38:59.969Z,6.70
2023-01-29T23:41:27.679Z,6.38
2023-01-29T23:43:55.692Z,6.20
2023-01-29T23:46:23.575Z,6.18
2023-01-29T23:48:51.096Z,6.57
2023-01-29T23:51:19.477Z,6.63
2023-01-29T23:53:47.000Z,6.60
2023-01-29T23:56:14.500Z,6.43
2023-01-29T23:58:43.246Z,6.80
